sensor_id;sensor_type;location;lat;lon;timestamp;P1;durP1;ratioP1;P2;durP2;ratioP2
46210;SDS011;52144;48.040;-1.594;2023-04-25T00:01:11;7.35;;;3.92;;
46210;SDS011;52144;48.040;-1.594;2023-04-25T00:03:40;5.03;;;2.20;;
46210;SDS011;52144;48.040;-1.594;2023-04-25T00:06:08;2.75;;;1.92;;
46210;SDS011;52144;48.040;-1.594;2023-04-25T00:08:36;6.63;;;2.22;;
46210;SDS011;52144;48.040;-1.594;2023-04-25T00:11:04;8.15;;;2.50;;
46210;SDS011;52144;48.040;-1.594;2023-04-25T00:13:33;5.25;;;2.63;;
46210;SDS011;52144;48.040;-1.594;2023-04-25T00:16:01;7.03;;;3.13;;
46210;SDS011;52144;48.040;-1.594;2023-04-25T00:18:29;3.83;;;2.53;;
46210;SDS011;52144;48.040;-1.594;2023-04-25T00:20:59;3.95;;;2.22;;
46210;SDS011;52144;48.040;-1.594;2023-04-25T00:23:27;6.38;;;2.60;;
46210;SDS011;52144;48.040;-1.594;2023-04-25T00:25:55;7.13;;;2.33;;
46210;SDS011;52144;48.040;-1.594;2023-04-25T00:28:22;3.22;;;2.38;;
46210;SDS011;52144;48.040;-1.594;2023-04-25T00:30:52;4.47;;;2.35;;
46210;SDS011;52144;48.040;-1.594;2023-04-25T00:33:19;3.55;;;2.50;;
46210;SDS011;52144;48.040;-1.594;2023-04-25T00:35:47;4.63;;;2.17;;
46210;SDS011;52144;48.040;-1.594;2023-04-25T00:38:15;2.50;;;2.05;;
46210;SDS011;52144;48.040;-1.594;2023-04-25T00:40:43;4.32;;;2.40;;
46210;SDS011;52144;48.040;-1.594;2023-04-25T00:43:10;5.20;;;2.28;;
46210;SDS011;52144;48.040;-1.594;2023-04-25T00:45:38;5.35;;;2.95;;
46210;SDS011;52144;48.040;-1.594;2023-04-25T00:48:08;3.88;;;2.25;;
46210;SDS011;52144;48.040;-1.594;2023-04-25T00:50:36;7.25;;;2.72;;
46210;SDS011;52144;48.040;-1.594;2023-04-25T00:53:04;12.82;;;2.28;;
46210;SDS011;52144;48.040;-1.594;2023-04-25T00:55:32;11.77;;;3.70;;
46210;SDS011;52144;48.040;-1.594;2023-04-25T00:58:00;3.60;;;1.77;;
46210;SDS011;52144;48.040;-1.594;2023-04-25T01:00:28;2.83;;;1.77;;
46210;SDS011;52144;48.040;-1.594;2023-04-25T01:02:56;4.68;;;2.22;;
46210;SDS011;52144;48.040;-1.594;2023-04-25T01:05:26;2.63;;;2.30;;
46210;SDS011;52144;48.040;-1.594;2023-04-25T01:07:54;7.20;;;2.35;;
46210;SDS011;52144;48.040;-1.594;2023-04-25T01:10:22;6.88;;;2.65;;
46210;SDS011;52144;48.040;-1.594;2023-04-25T01:12:50;4.13;;;2.08;;
46210;SDS011;52144;48.040;-1.594;2023-04-25T01:15:17;3.45;;;2.28;;
46210;SDS011;52144;48.040;-1.594;2023-04-25T01:17:45;2.45;;;2.22;;
46210;SDS011;52144;48.040;-1.594;2023-04-25T01:20:15;4.13;;;1.88;;
46210;SDS011;52144;48.040;-1.594;2023-04-25T01:22:45;4.78;;;2.30;;
46210;SDS011;52144;48.040;-1.594;2023-04-25T01:25:12;3.75;;;2.30;;
46210;SDS011;52144;48.040;-1.594;2023-04-25T01:27:40;6.60;;;2.92;;
46210;SDS011;52144;48.040;-1.594;2023-04-25T01:30:08;2.83;;;2.08;;
46210;SDS011;52144;48.040;-1.594;2023-04-25T01:32:37;3.40;;;2.65;;
46210;SDS011;52144;48.040;-1.594;2023-04-25T01:35:05;3.35;;;2.17;;
46210;SDS011;52144;48.040;-1.594;2023-04-25T01:37:36;7.30;;;2.63;;
46210;SDS011;52144;48.040;-1.594;2023-04-25T01:40:06;5.70;;;2.22;;
46210;SDS011;52144;48.040;-1.594;2023-04-25T01:42:35;3.55;;;1.80;;
46210;SDS011;52144;48.040;-1.594;2023-04-25T01:45:05;1.90;;;1.63;;
46210;SDS011;52144;48.040;-1.594;2023-04-25T01:47:34;1.90;;;1.80;;
46210;SDS011;52144;48.040;-1.594;2023-04-25T01:50:02;4.63;;;1.98;;
46210;SDS011;52144;48.040;-1.594;2023-04-25T01:52:31;12.60;;;2.45;;
46210;SDS011;52144;48.040;-1.594;2023-04-25T01:54:59;10.15;;;2.58;;
46210;SDS011;52144;48.040;-1.594;2023-04-25T01:57:30;3.53;;;1.98;;
46210;SDS011;52144;48.040;-1.594;2023-04-25T01:59:59;7.32;;;3.35;;
46210;SDS011;52144;48.040;-1.594;2023-04-25T02:02:27;3.75;;;1.92;;
46210;SDS011;52144;48.040;-1.594;2023-04-25T02:04:56;6.22;;;2.35;;
46210;SDS011;52144;48.040;-1.594;2023-04-25T02:07:24;1.77;;;1.55;;
46210;SDS011;52144;48.040;-1.594;2023-04-25T02:09:53;4.45;;;2.45;;
46210;SDS011;52144;48.040;-1.594;2023-04-25T02:12:21;3.28;;;2.42;;
46210;SDS011;52144;48.040;-1.594;2023-04-25T02:14:50;3.80;;;2.63;;
46210;SDS011;52144;48.040;-1.594;2023-04-25T02:17:17;2.90;;;2.05;;
46210;SDS011;52144;48.040;-1.594;2023-04-25T02:19:45;4.90;;;1.90;;
46210;SDS011;52144;48.040;-1.594;2023-04-25T02:22:13;10.55;;;2.60;;
46210;SDS011;52144;48.040;-1.594;2023-04-25T02:24:41;2.92;;;1.88;;
46210;SDS011;52144;48.040;-1.594;2023-04-25T02:27:08;5.13;;;2.45;;
46210;SDS011;52144;48.040;-1.594;2023-04-25T02:29:36;9.30;;;2.42;;
46210;SDS011;52144;48.040;-1.594;2023-04-25T02:32:05;2.33;;;2.13;;
46210;SDS011;52144;48.040;-1.594;2023-04-25T02:34:33;5.03;;;2.45;;
46210;SDS011;52144;48.040;-1.594;2023-04-25T02:37:01;6.10;;;3.03;;
46210;SDS011;52144;48.040;-1.594;2023-04-25T02:39:29;2.17;;;1.90;;
46210;SDS011;52144;48.040;-1.594;2023-04-25T02:41:56;3.08;;;2.22;;
46210;SDS011;52144;48.040;-1.594;2023-04-25T02:44:24;8.60;;;2.17;;
46210;SDS011;52144;48.040;-1.594;2023-04-25T02:46:52;4.03;;;2.33;;
46210;SDS011;52144;48.040;-1.594;2023-04-25T02:49:21;3.42;;;2.08;;
46210;SDS011;52144;48.040;-1.594;2023-04-25T02:51:49;6.20;;;2.28;;
46210;SDS011;52144;48.040;-1.594;2023-04-25T02:54:16;2.80;;;2.00;;
46210;SDS011;52144;48.040;-1.594;2023-04-25T02:56:44;5.82;;;1.88;;
46210;SDS011;52144;48.040;-1.594;2023-04-25T02:59:12;2.45;;;1.88;;
46210;SDS011;52144;48.040;-1.594;2023-04-25T03:01:39;6.32;;;2.45;;
46210;SDS011;52144;48.040;-1.594;2023-04-25T03:04:07;3.10;;;2.10;;
46210;SDS011;52144;48.040;-1.594;2023-04-25T03:06:36;3.25;;;2.88;;
46210;SDS011;52144;48.040;-1.594;2023-04-25T03:09:04;4.60;;;1.73;;
46210;SDS011;52144;48.040;-1.594;2023-04-25T03:11:32;5.78;;;1.83;;
46210;SDS011;52144;48.040;-1.594;2023-04-25T03:14:00;6.20;;;2.15;;
46210;SDS011;52144;48.040;-1.594;2023-04-25T03:16:27;2.67;;;1.92;;
46210;SDS011;52144;48.040;-1.594;2023-04-25T03:18:55;10.68;;;2.47;;
46210;SDS011;52144;48.040;-1.594;2023-04-25T03:21:23;3.25;;;1.98;;
46210;SDS011;52144;48.040;-1.594;2023-04-25T03:23:52;2.20;;;1.77;;
46210;SDS011;52144;48.040;-1.594;2023-04-25T03:26:20;2.55;;;1.98;;
46210;SDS011;52144;48.040;-1.594;2023-04-25T03:28:48;2.92;;;1.77;;
46210;SDS011;52144;48.040;-1.594;2023-04-25T03:31:16;8.30;;;2.60;;
46210;SDS011;52144;48.040;-1.594;2023-04-25T03:33:43;8.20;;;2.13;;
46210;SDS011;52144;48.040;-1.594;2023-04-25T03:36:11;5.85;;;2.28;;
46210;SDS011;52144;48.040;-1.594;2023-04-25T03:38:39;4.93;;;2.47;;
46210;SDS011;52144;48.040;-1.594;2023-04-25T03:41:09;3.85;;;1.98;;
46210;SDS011;52144;48.040;-1.594;2023-04-25T03:43:37;2.47;;;1.98;;
46210;SDS011;52144;48.040;-1.594;2023-04-25T03:46:04;4.47;;;1.98;;
46210;SDS011;52144;48.040;-1.594;2023-04-25T03:48:32;6.20;;;2.22;;
46210;SDS011;52144;48.040;-1.594;2023-04-25T03:51:00;2.38;;;1.95;;
46210;SDS011;52144;48.040;-1.594;2023-04-25T03:53:28;2.45;;;2.03;;
46210;SDS011;52144;48.040;-1.594;2023-04-25T03:55:56;4.47;;;2.03;;
46210;SDS011;52144;48.040;-1.594;2023-04-25T03:58:25;6.93;;;2.22;;
46210;SDS011;52144;48.040;-1.594;2023-04-25T04:00:52;3.08;;;2.03;;
46210;SDS011;52144;48.040;-1.594;2023-04-25T04:03:20;4.47;;;2.17;;
46210;SDS011;52144;48.040;-1.594;2023-04-25T04:05:48;2.70;;;2.05;;
46210;SDS011;52144;48.040;-1.594;2023-04-25T04:08:16;2.83;;;1.90;;
46210;SDS011;52144;48.040;-1.594;2023-04-25T04:10:44;7.15;;;2.08;;
46210;SDS011;52144;48.040;-1.594;2023-04-25T04:13:12;5.60;;;2.50;;
46210;SDS011;52144;48.040;-1.594;2023-04-25T04:15:41;5.38;;;2.83;;
46210;SDS011;52144;48.040;-1.594;2023-04-25T04:18:09;7.55;;;3.50;;
46210;SDS011;52144;48.040;-1.594;2023-04-25T04:20:37;6.03;;;2.53;;
46210;SDS011;52144;48.040;-1.594;2023-04-25T04:23:04;8.10;;;2.38;;
46210;SDS011;52144;48.040;-1.594;2023-04-25T04:25:32;5.15;;;3.13;;
46210;SDS011;52144;48.040;-1.594;2023-04-25T04:28:00;4.07;;;2.75;;
46210;SDS011;52144;48.040;-1.594;2023-04-25T04:30:28;3.92;;;2.25;;
46210;SDS011;52144;48.040;-1.594;2023-04-25T04:32:58;3.85;;;2.40;;
46210;SDS011;52144;48.040;-1.594;2023-04-25T04:35:27;13.13;;;3.30;;
46210;SDS011;52144;48.040;-1.594;2023-04-25T04:37:54;5.53;;;2.78;;
46210;SDS011;52144;48.040;-1.594;2023-04-25T04:40:22;7.85;;;3.92;;
46210;SDS011;52144;48.040;-1.594;2023-04-25T04:42:51;8.73;;;3.90;;
46210;SDS011;52144;48.040;-1.594;2023-04-25T04:45:22;6.95;;;2.97;;
46210;SDS011;52144;48.040;-1.594;2023-04-25T04:47:50;8.00;;;3.03;;
46210;SDS011;52144;48.040;-1.594;2023-04-25T04:50:20;8.48;;;2.88;;
46210;SDS011;52144;48.040;-1.594;2023-04-25T04:52:48;6.43;;;3.30;;
46210;SDS011;52144;48.040;-1.594;2023-04-25T04:55:16;6.60;;;3.13;;
46210;SDS011;52144;48.040;-1.594;2023-04-25T04:57:43;8.93;;;2.60;;
46210;SDS011;52144;48.040;-1.594;2023-04-25T05:00:11;8.50;;;3.17;;
46210;SDS011;52144;48.040;-1.594;2023-04-25T05:02:41;5.35;;;2.70;;
46210;SDS011;52144;48.040;-1.594;2023-04-25T05:05:09;3.33;;;2.50;;
46210;SDS011;52144;48.040;-1.594;2023-04-25T05:07:38;3.97;;;2.70;;
46210;SDS011;52144;48.040;-1.594;2023-04-25T05:10:07;6.55;;;4.10;;
46210;SDS011;52144;48.040;-1.594;2023-04-25T05:12:35;5.82;;;3.22;;
46210;SDS011;52144;48.040;-1.594;2023-04-25T05:15:03;4.65;;;3.75;;
46210;SDS011;52144;48.040;-1.594;2023-04-25T05:17:31;4.15;;;3.20;;
46210;SDS011;52144;48.040;-1.594;2023-04-25T05:20:00;6.65;;;2.80;;
46210;SDS011;52144;48.040;-1.594;2023-04-25T05:22:27;14.20;;;3.60;;
46210;SDS011;52144;48.040;-1.594;2023-04-25T05:24:57;10.38;;;3.38;;
46210;SDS011;52144;48.040;-1.594;2023-04-25T05:27:24;8.70;;;2.65;;
46210;SDS011;52144;48.040;-1.594;2023-04-25T05:29:52;5.30;;;2.60;;
46210;SDS011;52144;48.040;-1.594;2023-04-25T05:32:20;8.20;;;3.20;;
46210;SDS011;52144;48.040;-1.594;2023-04-25T05:34:48;4.38;;;2.78;;
46210;SDS011;52144;48.040;-1.594;2023-04-25T05:37:16;6.43;;;2.90;;
46210;SDS011;52144;48.040;-1.594;2023-04-25T05:39:44;6.90;;;2.97;;
46210;SDS011;52144;48.040;-1.594;2023-04-25T05:42:13;7.38;;;3.20;;
46210;SDS011;52144;48.040;-1.594;2023-04-25T05:44:41;9.30;;;3.42;;
46210;SDS011;52144;48.040;-1.594;2023-04-25T05:47:08;6.30;;;3.35;;
46210;SDS011;52144;48.040;-1.594;2023-04-25T05:49:36;14.70;;;2.85;;
46210;SDS011;52144;48.040;-1.594;2023-04-25T05:52:04;7.18;;;3.90;;
46210;SDS011;52144;48.040;-1.594;2023-04-25T05:54:32;4.13;;;2.58;;
46210;SDS011;52144;48.040;-1.594;2023-04-25T05:56:59;5.32;;;3.03;;
46210;SDS011;52144;48.040;-1.594;2023-04-25T05:59:30;6.57;;;2.65;;
46210;SDS011;52144;48.040;-1.594;2023-04-25T06:01:58;5.68;;;2.83;;
46210;SDS011;52144;48.040;-1.594;2023-04-25T06:04:27;5.55;;;3.20;;
46210;SDS011;52144;48.040;-1.594;2023-04-25T06:06:55;8.15;;;2.75;;
46210;SDS011;52144;48.040;-1.594;2023-04-25T06:09:23;5.38;;;3.05;;
46210;SDS011;52144;48.040;-1.594;2023-04-25T06:11:50;5.90;;;3.35;;
46210;SDS011;52144;48.040;-1.594;2023-04-25T06:14:18;5.03;;;2.95;;
46210;SDS011;52144;48.040;-1.594;2023-04-25T06:16:47;14.02;;;4.25;;
46210;SDS011;52144;48.040;-1.594;2023-04-25T06:19:15;4.25;;;3.47;;
46210;SDS011;52144;48.040;-1.594;2023-04-25T06:21:43;5.60;;;3.97;;
46210;SDS011;52144;48.040;-1.594;2023-04-25T06:24:11;3.80;;;2.70;;
46210;SDS011;52144;48.040;-1.594;2023-04-25T06:26:39;5.57;;;3.42;;
46210;SDS011;52144;48.040;-1.594;2023-04-25T06:29:07;6.03;;;3.35;;
46210;SDS011;52144;48.040;-1.594;2023-04-25T06:31:35;8.02;;;4.35;;
46210;SDS011;52144;48.040;-1.594;2023-04-25T06:34:04;13.85;;;3.55;;
46210;SDS011;52144;48.040;-1.594;2023-04-25T06:36:32;3.83;;;2.70;;
46210;SDS011;52144;48.040;-1.594;2023-04-25T06:38:59;14.63;;;3.78;;
46210;SDS011;52144;48.040;-1.594;2023-04-25T06:41:27;10.43;;;2.83;;
46210;SDS011;52144;48.040;-1.594;2023-04-25T06:43:55;7.65;;;3.00;;
46210;SDS011;52144;48.040;-1.594;2023-04-25T06:46:23;11.55;;;3.63;;
46210;SDS011;52144;48.040;-1.594;2023-04-25T06:48:51;12.75;;;3.67;;
46210;SDS011;52144;48.040;-1.594;2023-04-25T06:51:20;9.15;;;4.07;;
46210;SDS011;52144;48.040;-1.594;2023-04-25T06:53:49;5.47;;;2.83;;
46210;SDS011;52144;48.040;-1.594;2023-04-25T06:56:17;6.50;;;3.60;;
46210;SDS011;52144;48.040;-1.594;2023-04-25T06:58:45;6.20;;;3.38;;
46210;SDS011;52144;48.040;-1.594;2023-04-25T07:01:13;4.80;;;2.60;;
46210;SDS011;52144;48.040;-1.594;2023-04-25T07:03:41;6.45;;;3.88;;
46210;SDS011;52144;48.040;-1.594;2023-04-25T07:06:09;6.10;;;3.35;;
46210;SDS011;52144;48.040;-1.594;2023-04-25T07:08:38;15.43;;;4.13;;
46210;SDS011;52144;48.040;-1.594;2023-04-25T07:11:05;7.43;;;3.90;;
46210;SDS011;52144;48.040;-1.594;2023-04-25T07:13:33;8.75;;;4.45;;
46210;SDS011;52144;48.040;-1.594;2023-04-25T07:16:01;6.93;;;3.63;;
46210;SDS011;52144;48.040;-1.594;2023-04-25T07:18:29;6.25;;;3.03;;
46210;SDS011;52144;48.040;-1.594;2023-04-25T07:20:57;11.00;;;4.65;;
46210;SDS011;52144;48.040;-1.594;2023-04-25T07:23:24;8.38;;;3.67;;
46210;SDS011;52144;48.040;-1.594;2023-04-25T07:25:54;8.52;;;3.80;;
46210;SDS011;52144;48.040;-1.594;2023-04-25T07:28:22;12.55;;;4.95;;
46210;SDS011;52144;48.040;-1.594;2023-04-25T07:30:49;11.88;;;3.92;;
46210;SDS011;52144;48.040;-1.594;2023-04-25T07:33:17;3.65;;;2.92;;
46210;SDS011;52144;48.040;-1.594;2023-04-25T07:35:46;7.90;;;3.90;;
46210;SDS011;52144;48.040;-1.594;2023-04-25T07:38:14;11.43;;;4.78;;
46210;SDS011;52144;48.040;-1.594;2023-04-25T07:40:42;13.35;;;4.40;;
46210;SDS011;52144;48.040;-1.594;2023-04-25T07:43:11;8.63;;;4.15;;
46210;SDS011;52144;48.040;-1.594;2023-04-25T07:45:42;11.07;;;4.53;;
46210;SDS011;52144;48.040;-1.594;2023-04-25T07:48:10;4.93;;;3.63;;
46210;SDS011;52144;48.040;-1.594;2023-04-25T07:50:38;14.43;;;5.47;;
46210;SDS011;52144;48.040;-1.594;2023-04-25T07:53:06;13.77;;;5.00;;
46210;SDS011;52144;48.040;-1.594;2023-04-25T07:55:41;14.10;;;4.93;;
46210;SDS011;52144;48.040;-1.594;2023-04-25T07:58:10;6.25;;;3.55;;
46210;SDS011;52144;48.040;-1.594;2023-04-25T08:00:41;8.50;;;4.18;;
46210;SDS011;52144;48.040;-1.594;2023-04-25T08:03:09;19.05;;;5.93;;
46210;SDS011;52144;48.040;-1.594;2023-04-25T08:05:37;16.45;;;5.35;;
46210;SDS011;52144;48.040;-1.594;2023-04-25T08:08:05;8.02;;;3.65;;
46210;SDS011;52144;48.040;-1.594;2023-04-25T08:10:33;12.15;;;5.03;;
46210;SDS011;52144;48.040;-1.594;2023-04-25T08:13:01;6.20;;;3.40;;
46210;SDS011;52144;48.040;-1.594;2023-04-25T08:15:31;5.47;;;3.35;;
46210;SDS011;52144;48.040;-1.594;2023-04-25T08:17:58;5.28;;;3.42;;
46210;SDS011;52144;48.040;-1.594;2023-04-25T08:20:26;8.50;;;3.95;;
46210;SDS011;52144;48.040;-1.594;2023-04-25T08:22:54;9.07;;;3.10;;
46210;SDS011;52144;48.040;-1.594;2023-04-25T08:25:22;7.03;;;3.42;;
46210;SDS011;52144;48.040;-1.594;2023-04-25T08:27:50;10.80;;;4.05;;
46210;SDS011;52144;48.040;-1.594;2023-04-25T08:30:18;6.78;;;4.28;;
46210;SDS011;52144;48.040;-1.594;2023-04-25T08:32:48;10.02;;;3.70;;
46210;SDS011;52144;48.040;-1.594;2023-04-25T08:35:16;10.88;;;4.20;;
46210;SDS011;52144;48.040;-1.594;2023-04-25T08:37:44;5.60;;;3.28;;
46210;SDS011;52144;48.040;-1.594;2023-04-25T08:40:12;5.40;;;3.85;;
46210;SDS011;52144;48.040;-1.594;2023-04-25T08:42:42;6.03;;;3.25;;
46210;SDS011;52144;48.040;-1.594;2023-04-25T08:45:10;6.63;;;3.08;;
46210;SDS011;52144;48.040;-1.594;2023-04-25T08:47:38;8.25;;;2.95;;
46210;SDS011;52144;48.040;-1.594;2023-04-25T08:50:09;4.50;;;3.15;;
46210;SDS011;52144;48.040;-1.594;2023-04-25T08:52:37;3.90;;;2.85;;
46210;SDS011;52144;48.040;-1.594;2023-04-25T08:55:10;6.05;;;3.35;;
46210;SDS011;52144;48.040;-1.594;2023-04-25T08:57:40;30.17;;;8.43;;
46210;SDS011;52144;48.040;-1.594;2023-04-25T09:00:10;18.92;;;6.57;;
46210;SDS011;52144;48.040;-1.594;2023-04-25T09:02:39;7.43;;;3.65;;
46210;SDS011;52144;48.040;-1.594;2023-04-25T09:05:09;8.77;;;4.13;;
46210;SDS011;52144;48.040;-1.594;2023-04-25T09:07:39;6.32;;;3.40;;
46210;SDS011;52144;48.040;-1.594;2023-04-25T09:10:08;4.50;;;3.30;;
46210;SDS011;52144;48.040;-1.594;2023-04-25T09:12:36;6.28;;;2.58;;
46210;SDS011;52144;48.040;-1.594;2023-04-25T09:15:05;8.02;;;3.33;;
46210;SDS011;52144;48.040;-1.594;2023-04-25T09:17:34;3.55;;;2.95;;
46210;SDS011;52144;48.040;-1.594;2023-04-25T09:20:07;3.58;;;3.00;;
46210;SDS011;52144;48.040;-1.594;2023-04-25T09:22:37;6.20;;;2.90;;
46210;SDS011;52144;48.040;-1.594;2023-04-25T09:25:09;5.35;;;2.75;;
46210;SDS011;52144;48.040;-1.594;2023-04-25T09:27:48;4.78;;;2.58;;
46210;SDS011;52144;48.040;-1.594;2023-04-25T09:30:17;3.30;;;2.53;;
46210;SDS011;52144;48.040;-1.594;2023-04-25T09:32:44;7.63;;;2.90;;
46210;SDS011;52144;48.040;-1.594;2023-04-25T09:35:14;5.20;;;2.97;;
46210;SDS011;52144;48.040;-1.594;2023-04-25T09:37:51;4.30;;;2.28;;
46210;SDS011;52144;48.040;-1.594;2023-04-25T09:40:18;4.15;;;2.00;;
46210;SDS011;52144;48.040;-1.594;2023-04-25T09:42:46;5.43;;;3.08;;
46210;SDS011;52144;48.040;-1.594;2023-04-25T09:45:14;6.55;;;2.75;;
46210;SDS011;52144;48.040;-1.594;2023-04-25T09:47:42;6.97;;;3.30;;
46210;SDS011;52144;48.040;-1.594;2023-04-25T09:50:14;3.50;;;2.40;;
46210;SDS011;52144;48.040;-1.594;2023-04-25T09:52:43;21.13;;;5.75;;
46210;SDS011;52144;48.040;-1.594;2023-04-25T09:55:11;3.65;;;2.78;;
46210;SDS011;52144;48.040;-1.594;2023-04-25T09:57:39;3.90;;;3.08;;
46210;SDS011;52144;48.040;-1.594;2023-04-25T10:00:08;6.65;;;2.70;;
46210;SDS011;52144;48.040;-1.594;2023-04-25T10:02:39;5.55;;;3.28;;
46210;SDS011;52144;48.040;-1.594;2023-04-25T10:05:10;6.60;;;2.92;;
46210;SDS011;52144;48.040;-1.594;2023-04-25T10:07:40;4.22;;;2.58;;
46210;SDS011;52144;48.040;-1.594;2023-04-25T10:10:08;4.68;;;2.50;;
46210;SDS011;52144;48.040;-1.594;2023-04-25T10:12:39;6.88;;;2.47;;
46210;SDS011;52144;48.040;-1.594;2023-04-25T10:15:09;3.88;;;3.10;;
46210;SDS011;52144;48.040;-1.594;2023-04-25T10:17:38;4.57;;;2.47;;
46210;SDS011;52144;48.040;-1.594;2023-04-25T10:20:07;3.17;;;2.22;;
46210;SDS011;52144;48.040;-1.594;2023-04-25T10:22:37;4.20;;;2.20;;
46210;SDS011;52144;48.040;-1.594;2023-04-25T10:25:09;5.13;;;2.28;;
46210;SDS011;52144;48.040;-1.594;2023-04-25T10:27:38;4.35;;;2.85;;
46210;SDS011;52144;48.040;-1.594;2023-04-25T10:30:07;3.78;;;2.72;;
46210;SDS011;52144;48.040;-1.594;2023-04-25T10:32:38;2.93;;;2.53;;
46210;SDS011;52144;48.040;-1.594;2023-04-25T10:35:12;2.75;;;2.33;;
46210;SDS011;52144;48.040;-1.594;2023-04-25T10:40:29;4.97;;;3.22;;
46210;SDS011;52144;48.040;-1.594;2023-04-25T10:45:59;6.20;;;3.30;;
46210;SDS011;52144;48.040;-1.594;2023-04-25T10:48:27;6.95;;;2.70;;
46210;SDS011;52144;48.040;-1.594;2023-04-25T10:51:08;5.82;;;2.30;;
46210;SDS011;52144;48.040;-1.594;2023-04-25T10:53:36;4.03;;;2.20;;
46210;SDS011;52144;48.040;-1.594;2023-04-25T10:56:10;4.10;;;2.42;;
46210;SDS011;52144;48.040;-1.594;2023-04-25T10:58:43;4.13;;;2.03;;
46210;SDS011;52144;48.040;-1.594;2023-04-25T11:01:12;4.20;;;2.95;;
46210;SDS011;52144;48.040;-1.594;2023-04-25T11:03:41;7.60;;;3.65;;
46210;SDS011;52144;48.040;-1.594;2023-04-25T11:06:12;5.85;;;3.40;;
46210;SDS011;52144;48.040;-1.594;2023-04-25T11:08:49;8.32;;;3.25;;
46210;SDS011;52144;48.040;-1.594;2023-04-25T11:11:19;3.65;;;2.47;;
46210;SDS011;52144;48.040;-1.594;2023-04-25T11:13:48;5.40;;;3.15;;
46210;SDS011;52144;48.040;-1.594;2023-04-25T11:16:16;3.38;;;2.72;;
46210;SDS011;52144;48.040;-1.594;2023-04-25T11:18:53;5.60;;;2.75;;
46210;SDS011;52144;48.040;-1.594;2023-04-25T11:21:24;7.07;;;2.38;;
46210;SDS011;52144;48.040;-1.594;2023-04-25T11:23:54;2.63;;;2.08;;
46210;SDS011;52144;48.040;-1.594;2023-04-25T11:26:25;3.70;;;2.10;;
46210;SDS011;52144;48.040;-1.594;2023-04-25T11:28:56;6.70;;;3.03;;
46210;SDS011;52144;48.040;-1.594;2023-04-25T11:31:25;4.20;;;2.25;;
46210;SDS011;52144;48.040;-1.594;2023-04-25T11:33:53;4.47;;;2.97;;
46210;SDS011;52144;48.040;-1.594;2023-04-25T11:36:22;3.10;;;2.58;;
46210;SDS011;52144;48.040;-1.594;2023-04-25T11:38:50;4.03;;;1.92;;
46210;SDS011;52144;48.040;-1.594;2023-04-25T11:41:18;4.53;;;2.00;;
46210;SDS011;52144;48.040;-1.594;2023-04-25T11:43:47;7.60;;;3.75;;
46210;SDS011;52144;48.040;-1.594;2023-04-25T11:46:16;3.63;;;2.35;;
46210;SDS011;52144;48.040;-1.594;2023-04-25T11:48:45;4.45;;;2.78;;
46210;SDS011;52144;48.040;-1.594;2023-04-25T11:51:14;4.65;;;2.63;;
46210;SDS011;52144;48.040;-1.594;2023-04-25T11:53:42;2.50;;;2.05;;
46210;SDS011;52144;48.040;-1.594;2023-04-25T11:56:12;5.65;;;2.03;;
46210;SDS011;52144;48.040;-1.594;2023-04-25T12:01:33;7.57;;;2.38;;
46210;SDS011;52144;48.040;-1.594;2023-04-25T12:04:11;3.80;;;2.22;;
46210;SDS011;52144;48.040;-1.594;2023-04-25T12:06:40;6.15;;;2.50;;
46210;SDS011;52144;48.040;-1.594;2023-04-25T12:09:10;2.33;;;1.90;;
46210;SDS011;52144;48.040;-1.594;2023-04-25T12:11:42;4.88;;;2.17;;
46210;SDS011;52144;48.040;-1.594;2023-04-25T12:14:12;3.85;;;2.50;;
46210;SDS011;52144;48.040;-1.594;2023-04-25T12:16:50;3.50;;;2.55;;
46210;SDS011;52144;48.040;-1.594;2023-04-25T12:19:19;5.57;;;2.25;;
46210;SDS011;52144;48.040;-1.594;2023-04-25T12:21:47;3.17;;;1.90;;
46210;SDS011;52144;48.040;-1.594;2023-04-25T12:24:23;2.17;;;1.88;;
46210;SDS011;52144;48.040;-1.594;2023-04-25T12:26:57;6.68;;;1.98;;
46210;SDS011;52144;48.040;-1.594;2023-04-25T12:29:29;2.28;;;1.85;;
46210;SDS011;52144;48.040;-1.594;2023-04-25T12:32:13;1.85;;;1.65;;
46210;SDS011;52144;48.040;-1.594;2023-04-25T12:34:41;4.60;;;2.35;;
46210;SDS011;52144;48.040;-1.594;2023-04-25T12:37:09;5.50;;;2.40;;
46210;SDS011;52144;48.040;-1.594;2023-04-25T12:39:37;8.93;;;2.38;;
46210;SDS011;52144;48.040;-1.594;2023-04-25T12:42:05;2.65;;;1.42;;
46210;SDS011;52144;48.040;-1.594;2023-04-25T12:44:36;6.10;;;3.20;;
46210;SDS011;52144;48.040;-1.594;2023-04-25T12:47:04;2.20;;;1.80;;
46210;SDS011;52144;48.040;-1.594;2023-04-25T12:49:32;2.03;;;1.63;;
46210;SDS011;52144;48.040;-1.594;2023-04-25T12:52:01;3.42;;;1.75;;
46210;SDS011;52144;48.040;-1.594;2023-04-25T12:54:28;3.75;;;1.70;;
46210;SDS011;52144;48.040;-1.594;2023-04-25T12:56:56;2.22;;;1.67;;
46210;SDS011;52144;48.040;-1.594;2023-04-25T12:59:24;5.13;;;2.45;;
46210;SDS011;52144;48.040;-1.594;2023-04-25T13:01:53;1.65;;;1.48;;
46210;SDS011;52144;48.040;-1.594;2023-04-25T13:04:21;1.92;;;1.63;;
46210;SDS011;52144;48.040;-1.594;2023-04-25T13:06:49;1.70;;;1.60;;
46210;SDS011;52144;48.040;-1.594;2023-04-25T13:09:17;4.53;;;2.45;;
46210;SDS011;52144;48.040;-1.594;2023-04-25T13:11:45;6.07;;;2.15;;
46210;SDS011;52144;48.040;-1.594;2023-04-25T13:14:13;5.38;;;1.88;;
46210;SDS011;52144;48.040;-1.594;2023-04-25T13:16:41;2.95;;;2.58;;
46210;SDS011;52144;48.040;-1.594;2023-04-25T13:19:10;2.45;;;1.65;;
46210;SDS011;52144;48.040;-1.594;2023-04-25T13:21:38;5.60;;;2.45;;
46210;SDS011;52144;48.040;-1.594;2023-04-25T13:24:06;3.65;;;2.50;;
46210;SDS011;52144;48.040;-1.594;2023-04-25T13:26:35;6.30;;;2.30;;
46210;SDS011;52144;48.040;-1.594;2023-04-25T13:29:03;3.35;;;1.77;;
46210;SDS011;52144;48.040;-1.594;2023-04-25T13:31:31;3.63;;;1.70;;
46210;SDS011;52144;48.040;-1.594;2023-04-25T13:33:59;5.38;;;2.03;;
46210;SDS011;52144;48.040;-1.594;2023-04-25T13:36:28;2.05;;;1.60;;
46210;SDS011;52144;48.040;-1.594;2023-04-25T13:38:55;2.97;;;1.98;;
46210;SDS011;52144;48.040;-1.594;2023-04-25T13:41:23;2.83;;;2.15;;
46210;SDS011;52144;48.040;-1.594;2023-04-25T13:43:51;1.92;;;1.52;;
46210;SDS011;52144;48.040;-1.594;2023-04-25T13:46:19;3.13;;;1.73;;
46210;SDS011;52144;48.040;-1.594;2023-04-25T13:49:07;3.60;;;1.83;;
46210;SDS011;52144;48.040;-1.594;2023-04-25T13:51:40;4.15;;;2.40;;
46210;SDS011;52144;48.040;-1.594;2023-04-25T13:54:08;3.85;;;1.80;;
46210;SDS011;52144;48.040;-1.594;2023-04-25T13:56:36;4.65;;;1.95;;
46210;SDS011;52144;48.040;-1.594;2023-04-25T13:59:04;2.65;;;2.13;;
46210;SDS011;52144;48.040;-1.594;2023-04-25T14:01:32;6.75;;;2.55;;
46210;SDS011;52144;48.040;-1.594;2023-04-25T14:04:01;2.08;;;1.70;;
46210;SDS011;52144;48.040;-1.594;2023-04-25T14:06:30;3.85;;;2.05;;
46210;SDS011;52144;48.040;-1.594;2023-04-25T14:09:00;4.03;;;2.10;;
46210;SDS011;52144;48.040;-1.594;2023-04-25T14:11:30;3.33;;;1.90;;
46210;SDS011;52144;48.040;-1.594;2023-04-25T14:13:58;2.85;;;1.90;;
46210;SDS011;52144;48.040;-1.594;2023-04-25T14:16:26;3.42;;;1.88;;
46210;SDS011;52144;48.040;-1.594;2023-04-25T14:18:53;2.65;;;1.80;;
46210;SDS011;52144;48.040;-1.594;2023-04-25T14:21:21;2.65;;;1.80;;
46210;SDS011;52144;48.040;-1.594;2023-04-25T14:23:49;1.55;;;1.45;;
46210;SDS011;52144;48.040;-1.594;2023-04-25T14:26:18;5.28;;;1.70;;
46210;SDS011;52144;48.040;-1.594;2023-04-25T14:28:46;3.60;;;2.22;;
46210;SDS011;52144;48.040;-1.594;2023-04-25T14:31:14;2.47;;;1.83;;
46210;SDS011;52144;48.040;-1.594;2023-04-25T14:33:42;2.33;;;2.13;;
46210;SDS011;52144;48.040;-1.594;2023-04-25T14:36:10;2.50;;;1.67;;
46210;SDS011;52144;48.040;-1.594;2023-04-25T14:38:38;2.55;;;1.85;;
46210;SDS011;52144;48.040;-1.594;2023-04-25T14:41:06;2.22;;;1.60;;
46210;SDS011;52144;48.040;-1.594;2023-04-25T14:43:35;2.90;;;2.03;;
46210;SDS011;52144;48.040;-1.594;2023-04-25T14:46:02;2.75;;;1.95;;
46210;SDS011;52144;48.040;-1.594;2023-04-25T14:48:30;5.50;;;2.35;;
46210;SDS011;52144;48.040;-1.594;2023-04-25T14:50:58;2.78;;;1.73;;